Time;durP1;ratioP1;P1;durP2;ratioP2;P2;SDS_P1;SDS_P2;PMS_P1;PMS_P2;Temp;Humidity;BMP_temperature;BMP_pressure;BME280_temperature;BME280_humidity;BME280_pressure;Samples;Min_cycle;Max_cycle;Signal;HPM_P1;HPM_P2
2023/05/29 00:00:12;;;;;;;;;;;;;;;12.47;58.31;99176.47;67937;1275;1016443;-68
2023/05/29 00:03:34;;;;;;;;;;;;;;;12.62;58.03;99174.32;67947;1275;1016401;-62
2023/05/29 00:06:41;;;;;;;;;;;;;;;12.74;57.42;99166.70;67959;1275;1015998;-66
2023/05/29 00:09:47;;;;;;;;;;;;;;;12.82;57.41;99170.02;67943;1275;1016444;-62
2023/05/29 00:12:51;;;;;;;;;;;;;;;12.89;57.60;99172.93;67927;1275;1016151;-62
2023/05/29 00:15:55;;;;;;;;;;;;;;;12.85;57.64;99170.92;65105;1275;6694739;-62
2023/05/29 00:18:58;;;;;;;;;;;;;;;12.79;57.82;99165.66;67974;1275;1015880;-71
2023/05/29 00:22:00;;;;;;;;;;;;;;;12.77;57.59;99163.17;67940;1275;1016465;-63
2023/05/29 00:25:03;;;;;;;;;;;;;;;12.69;57.50;99157.06;67969;1275;1016477;-62
2023/05/29 00:28:06;;;;;;;;;;;;;;;12.56;57.57;99149.11;67923;1275;1018792;-67
2023/05/29 00:31:18;;;;;;;;;;;;;;;12.47;58.01;99150.33;67938;1275;1016424;-62
2023/05/29 00:34:22;;;;;;;;;;;;;;;12.36;58.36;99150.87;67928;1275;1016228;-66
2023/05/29 00:37:25;;;;;;;;;;;;;;;12.15;58.95;99149.17;67927;1275;1018202;-72
2023/05/29 00:40:28;;;;;;;;;;;;;;;12.06;58.91;99152.20;67972;1275;1016768;-62
2023/05/29 00:43:31;;;;;;;;;;;;;;;12.10;59.20;99154.96;67927;1275;1016430;-62
2023/05/29 00:46:34;;;;;;;;;;;;;;;12.01;58.99;99157.78;67938;1275;1015943;-62
2023/05/29 00:49:37;;;;;;;;;;;;;;;11.96;59.00;99156.83;67921;1275;1016394;-61
2023/05/29 00:52:40;;;;;;;;;;;;;;;11.98;58.98;99154.98;67958;1275;1016217;-73
2023/05/29 00:55:43;;;;;;;;;;;;;;;12.02;59.24;99157.35;67921;1275;1016208;-61
2023/05/29 00:58:46;;;;;;;;;;;;;;;12.13;58.93;99155.26;67959;1275;1016835;-62
2023/05/29 01:01:48;;;;;;;;;;;;;;;12.19;58.77;99153.15;67968;1275;1016365;-63
2023/05/29 01:04:57;;;;;;;;;;;;;;;12.21;58.95;99155.98;67927;1275;1016424;-62
2023/05/29 01:08:00;;;;;;;;;;;;;;;12.21;58.69;99156.58;67954;1275;1016386;-61
2023/05/29 01:11:04;;;;;;;;;;;;;;;12.06;58.68;99156.93;67927;1275;1016384;-63
2023/05/29 01:14:09;;;;;;;;;;;;;;;11.98;58.46;99156.04;67908;1275;1016031;-71
2023/05/29 01:17:13;;;;;;;;;;;;;;;11.95;58.64;99154.46;67920;1275;1016445;-65
2023/05/29 01:20:17;;;;;;;;;;;;;;;11.93;58.72;99154.58;67969;1275;1016427;-61
2023/05/29 01:23:20;;;;;;;;;;;;;;;11.86;58.84;99152.52;67937;1275;1016117;-63
2023/05/29 01:26:26;;;;;;;;;;;;;;;11.80;58.78;99151.84;67986;1275;1018898;-63
2023/05/29 01:29:31;;;;;;;;;;;;;;;11.67;58.99;99147.17;67899;1275;1016428;-63
2023/05/29 01:32:34;;;;;;;;;;;;;;;11.59;59.51;99139.46;67972;1275;1016433;-62
2023/05/29 01:35:37;;;;;;;;;;;;;;;11.40;59.94;99136.72;67920;1275;1016392;-73
2023/05/29 01:38:42;;;;;;;;;;;;;;;11.26;60.38;99138.23;67876;1275;1016377;-61
2023/05/29 01:41:46;;;;;;;;;;;;;;;11.19;60.66;99138.25;67931;1275;1015782;-62
2023/05/29 01:44:49;;;;;;;;;;;;;;;11.11;60.58;99142.97;67910;1275;1016373;-72
2023/05/29 01:47:54;;;;;;;;;;;;;;;11.05;60.50;99144.69;67947;1275;1016487;-66
2023/05/29 01:50:58;;;;;;;;;;;;;;;11.02;60.34;99145.38;67910;1275;1016283;-65
2023/05/29 01:54:01;;;;;;;;;;;;;;;10.86;61.20;99146.29;67979;1275;1016459;-73
2023/05/29 01:57:06;;;;;;;;;;;;;;;10.85;61.58;99146.19;67964;1275;1017214;-61
2023/05/29 02:00:10;;;;;;;;;;;;;;;10.87;61.66;99147.27;67917;1275;1015734;-74
2023/05/29 02:03:13;;;;;;;;;;;;;;;10.95;61.36;99139.68;67941;1275;1016429;-61
2023/05/29 02:06:35;;;;;;;;;;;;;;;10.99;61.58;99137.85;67966;1275;1016303;-61
2023/05/29 02:09:38;;;;;;;;;;;;;;;11.00;61.55;99133.06;67942;1275;1016481;-61
2023/05/29 02:12:44;;;;;;;;;;;;;;;11.06;61.61;99128.33;67963;1275;1015805;-61
2023/05/29 02:15:46;;;;;;;;;;;;;;;10.99;61.79;99127.68;67928;1275;1016501;-62
2023/05/29 02:18:49;;;;;;;;;;;;;;;10.99;61.50;99128.60;67911;1275;1016453;-63
2023/05/29 02:21:51;;;;;;;;;;;;;;;10.97;61.34;99122.59;67947;1275;1016136;-61
2023/05/29 02:24:54;;;;;;;;;;;;;;;10.91;61.27;99125.89;67967;1275;1016533;-61
2023/05/29 02:28:00;;;;;;;;;;;;;;;10.93;61.26;99123.31;67924;1275;1016414;-61
2023/05/29 02:31:03;;;;;;;;;;;;;;;10.87;61.40;99123.86;67919;1275;1016442;-62
2023/05/29 02:34:06;;;;;;;;;;;;;;;10.83;61.22;99125.98;67953;1275;1016932;-68
2023/05/29 02:37:09;;;;;;;;;;;;;;;10.66;61.76;99120.00;67924;1275;1016357;-61
2023/05/29 02:40:12;;;;;;;;;;;;;;;10.45;62.11;99120.80;67973;1275;1016456;-71
2023/05/29 02:43:15;;;;;;;;;;;;;;;10.42;62.05;99119.89;67945;1275;1019341;-62
2023/05/29 02:46:21;;;;;;;;;;;;;;;10.50;60.96;99114.60;67900;1275;1015903;-61
2023/05/29 02:49:24;;;;;;;;;;;;;;;10.50;61.24;99115.98;67985;1275;1016087;-61
2023/05/29 02:52:28;;;;;;;;;;;;;;;10.53;61.63;99117.54;67916;1275;1016083;-62
2023/05/29 02:55:32;;;;;;;;;;;;;;;10.63;61.68;99114.55;67958;1275;1015915;-61
2023/05/29 02:58:35;;;;;;;;;;;;;;;10.79;61.92;99110.33;67948;1275;1018004;-61
2023/05/29 03:01:38;;;;;;;;;;;;;;;10.89;61.77;99115.35;67954;1275;1018851;-66
2023/05/29 03:04:41;;;;;;;;;;;;;;;10.93;61.63;99118.25;67942;1275;1016911;-61
2023/05/29 03:07:44;;;;;;;;;;;;;;;10.98;61.65;99119.52;67899;1275;1016808;-62
2023/05/29 03:10:47;;;;;;;;;;;;;;;11.04;61.24;99117.77;67962;1275;1016504;-62
2023/05/29 03:13:51;;;;;;;;;;;;;;;11.16;60.93;99115.38;67908;1275;1016530;-63
2023/05/29 03:16:55;;;;;;;;;;;;;;;11.06;61.40;99111.53;67917;1275;1016364;-60
2023/05/29 03:19:58;;;;;;;;;;;;;;;11.02;61.66;99110.75;67929;1275;1016437;-60
2023/05/29 03:23:01;;;;;;;;;;;;;;;11.12;61.72;99110.89;67927;1275;1015999;-61
2023/05/29 03:26:03;;;;;;;;;;;;;;;11.35;61.44;99112.48;67933;1275;1016233;-60
2023/05/29 03:29:07;;;;;;;;;;;;;;;11.55;60.80;99112.31;67952;1275;1016404;-62
2023/05/29 03:32:10;;;;;;;;;;;;;;;11.68;60.92;99114.92;67894;1275;1016343;-61
2023/05/29 03:35:12;;;;;;;;;;;;;;;11.75;60.67;99116.58;67916;1275;1016228;-61
2023/05/29 03:38:16;;;;;;;;;;;;;;;11.93;60.38;99120.40;67903;1275;1016121;-67
2023/05/29 03:41:19;;;;;;;;;;;;;;;11.99;60.54;99122.84;67941;1275;1016560;-62
2023/05/29 03:44:21;;;;;;;;;;;;;;;12.12;60.52;99116.77;67959;1275;1016265;-61
2023/05/29 03:47:26;;;;;;;;;;;;;;;12.24;60.13;99116.89;67944;1275;1016469;-62
2023/05/29 03:50:29;;;;;;;;;;;;;;;12.37;60.01;99118.73;67929;1275;1016503;-61
2023/05/29 03:53:33;;;;;;;;;;;;;;;12.56;60.23;99121.19;67931;1275;1016340;-59
2023/05/29 03:56:38;;;;;;;;;;;;;;;12.72;60.21;99124.70;67959;1275;1016421;-60
2023/05/29 03:59:41;;;;;;;;;;;;;;;12.95;60.13;99121.48;67919;1276;1016436;-59
2023/05/29 04:03:06;;;;;;;;;;;;;;;13.19;60.11;99123.90;67890;1276;1016437;-60
2023/05/29 04:06:11;;;;;;;;;;;;;;;13.48;59.82;99123.62;67879;1276;1016347;-60
2023/05/29 04:09:19;;;;;;;;;;;;;;;13.67;59.42;99120.85;67915;1276;1016355;-61
2023/05/29 04:12:23;;;;;;;;;;;;;;;13.57;59.88;99123.14;67889;1276;1016340;-59
2023/05/29 04:15:25;;;;;;;;;;;;;;;13.61;60.10;99117.92;67899;1276;1016468;-59
2023/05/29 04:18:28;;;;;;;;;;;;;;;13.74;59.81;99113.86;67821;1276;1016436;-59
2023/05/29 04:21:32;;;;;;;;;;;;;;;14.04;59.63;99113.41;67955;1272;1016248;-60
2023/05/29 04:24:35;;;;;;;;;;;;;;;14.36;58.63;99113.61;67889;1275;1016439;-66
2023/05/29 04:27:38;;;;;;;;;;;;;;;14.41;58.35;99119.77;67901;1275;1016143;-71
2023/05/29 04:30:41;;;;;;;;;;;;;;;14.39;58.37;99125.67;67923;1275;1016413;-74
2023/05/29 04:33:45;;;;;;;;;;;;;;;14.43;58.69;99127.72;67912;1275;1016437;-69
2023/05/29 04:36:48;;;;;;;;;;;;;;;14.44;59.40;99126.21;67973;1275;1016396;-60
2023/05/29 04:39:51;;;;;;;;;;;;;;;14.66;59.90;99128.02;67910;1275;1016483;-73
2023/05/29 04:42:53;;;;;;;;;;;;;;;14.98;60.17;99128.64;67939;1275;1016577;-74
2023/05/29 04:45:56;;;;;;;;;;;;;;;15.22;59.72;99128.06;67975;1275;1016043;-71
2023/05/29 04:48:58;;;;;;;;;;;;;;;15.45;59.19;99126.20;67917;1275;1016150;-71
2023/05/29 04:52:02;;;;;;;;;;;;;;;15.66;59.46;99127.61;67894;1275;1016457;-62
2023/05/29 04:55:05;;;;;;;;;;;;;;;15.87;59.28;99127.56;67926;1275;1018941;-72
2023/05/29 04:58:08;;;;;;;;;;;;;;;16.13;59.26;99129.19;67910;1275;1016488;-70
2023/05/29 05:01:14;;;;;;;;;;;;;;;16.41;58.91;99128.80;67950;1275;1016305;-61
2023/05/29 05:04:25;;;;;;;;;;;;;;;16.47;58.67;99133.79;67869;1275;1016263;-60
2023/05/29 05:07:28;;;;;;;;;;;;;;;16.46;58.54;99137.40;67886;1275;1016324;-74
2023/05/29 05:10:32;;;;;;;;;;;;;;;16.49;58.87;99137.54;67911;1275;1016092;-73
2023/05/29 05:13:35;;;;;;;;;;;;;;;16.70;58.79;99141.48;67922;1275;1016733;-61
2023/05/29 05:16:37;;;;;;;;;;;;;;;16.99;58.16;99140.66;67912;1275;1016507;-73
2023/05/29 05:19:40;;;;;;;;;;;;;;;17.14;57.22;99142.66;67962;1275;1016197;-60
2023/05/29 05:22:44;;;;;;;;;;;;;;;17.24;57.30;99143.80;67775;1275;1016167;-60
2023/05/29 05:25:46;;;;;;;;;;;;;;;17.39;57.34;99141.13;67862;1275;1016213;-60
2023/05/29 05:28:49;;;;;;;;;;;;;;;17.67;56.77;99136.79;67840;1275;1016821;-63
2023/05/29 05:31:52;;;;;;;;;;;;;;;17.98;55.76;99138.05;67909;1275;1016958;-66
2023/05/29 05:34:58;;;;;;;;;;;;;;;18.16;56.08;99137.20;67977;1275;1016640;-62
2023/05/29 05:38:01;;;;;;;;;;;;;;;18.24;56.24;99133.18;67932;1275;1016083;-73
2023/05/29 05:41:06;;;;;;;;;;;;;;;18.39;55.80;99139.50;67902;1275;1016310;-61
2023/05/29 05:44:10;;;;;;;;;;;;;;;18.59;55.83;99137.12;67914;1275;1019002;-73
2023/05/29 05:47:13;;;;;;;;;;;;;;;18.97;55.42;99139.61;67967;1275;1015775;-73
2023/05/29 05:50:15;;;;;;;;;;;;;;;19.31;54.66;99136.90;67942;1275;1019240;-68
2023/05/29 05:53:18;;;;;;;;;;;;;;;19.51;55.02;99137.88;67921;1275;1016391;-72
2023/05/29 05:56:21;;;;;;;;;;;;;;;19.98;55.37;99136.47;67974;1275;1016615;-73
2023/05/29 05:59:24;;;;;;;;;;;;;;;20.59;53.89;99141.35;67956;1275;1016068;-73
2023/05/29 06:02:28;;;;;;;;;;;;;;;21.04;52.00;99143.14;67907;1275;1016417;-73
2023/05/29 06:05:30;;;;;;;;;;;;;;;21.31;51.32;99141.52;67897;1275;1015809;-73
2023/05/29 06:08:33;;;;;;;;;;;;;;;21.52;51.43;99140.84;67984;1275;1016064;-73
2023/05/29 06:11:37;;;;;;;;;;;;;;;21.65;50.60;99139.02;67908;1275;1016382;-69
2023/05/29 06:14:41;;;;;;;;;;;;;;;21.91;50.05;99134.20;67970;1275;1016855;-73
2023/05/29 06:17:44;;;;;;;;;;;;;;;22.15;49.36;99133.46;67910;1275;1016232;-73
2023/05/29 06:20:48;;;;;;;;;;;;;;;22.54;48.92;99134.05;67913;1275;1016425;-62
2023/05/29 06:23:51;;;;;;;;;;;;;;;22.80;48.54;99134.92;67947;1275;1016379;-73
2023/05/29 06:26:54;;;;;;;;;;;;;;;23.09;48.78;99137.16;67957;1275;1016455;-73
2023/05/29 06:29:57;;;;;;;;;;;;;;;23.51;47.28;99135.98;67948;1275;1016289;-72
2023/05/29 06:33:00;;;;;;;;;;;;;;;23.82;46.54;99139.31;67990;1275;1016108;-72
2023/05/29 06:36:03;;;;;;;;;;;;;;;24.06;45.10;99137.12;67946;1275;1016789;-73
2023/05/29 06:39:07;;;;;;;;;;;;;;;24.23;44.77;99137.66;67979;1275;1016426;-61
2023/05/29 06:42:11;;;;;;;;;;;;;;;24.52;43.86;99137.20;67955;1275;1016773;-73
2023/05/29 06:45:15;;;;;;;;;;;;;;;24.53;43.14;99141.27;67926;1275;1016431;-73
2023/05/29 06:48:17;;;;;;;;;;;;;;;24.65;43.79;99142.52;67971;1275;1016000;-63
2023/05/29 06:51:21;;;;;;;;;;;;;;;24.90;42.51;99144.59;67966;1275;1016216;-73
2023/05/29 06:54:24;;;;;;;;;;;;;;;25.18;41.93;99150.53;67923;1275;1016516;-73
2023/05/29 06:57:26;;;;;;;;;;;;;;;25.36;41.64;99154.94;67895;1275;1016690;-73
2023/05/29 07:00:30;;;;;;;;;;;;;;;25.50;39.86;99155.63;67954;1275;1016008;-73
2023/05/29 07:03:33;;;;;;;;;;;;;;;25.24;39.07;99159.15;67894;1275;1016494;-73
2023/05/29 07:06:36;;;;;;;;;;;;;;;25.25;38.79;99158.51;67949;1275;1016298;-74
2023/05/29 07:09:40;;;;;;;;;;;;;;;25.25;37.82;99158.17;67903;1275;1016422;-66
2023/05/29 07:12:45;;;;;;;;;;;;;;;25.37;37.67;99161.98;67909;1275;1016443;-74
2023/05/29 07:15:48;;;;;;;;;;;;;;;25.38;36.39;99158.68;67924;1275;1018938;-72
2023/05/29 07:18:51;;;;;;;;;;;;;;;25.33;35.96;99160.98;67927;1275;1016307;-66
2023/05/29 07:21:54;;;;;;;;;;;;;;;25.36;36.45;99162.47;67968;1275;1020465;-74
2023/05/29 07:24:58;;;;;;;;;;;;;;;25.50;35.78;99165.23;67926;1275;1016679;-65
2023/05/29 07:28:01;;;;;;;;;;;;;;;25.51;35.22;99166.77;67956;1275;1016247;-74
2023/05/29 07:31:04;;;;;;;;;;;;;;;25.26;34.18;99165.39;67940;1275;1016983;-69
2023/05/29 07:34:07;;;;;;;;;;;;;;;25.22;34.29;99162.83;67967;1275;1016412;-65
2023/05/29 07:37:10;;;;;;;;;;;;;;;25.35;34.65;99164.91;67945;1275;1016496;-71
2023/05/29 07:40:14;;;;;;;;;;;;;;;25.40;34.12;99168.23;67897;1275;1016530;-62
2023/05/29 07:43:17;;;;;;;;;;;;;;;25.52;34.13;99165.98;67926;1275;1016544;-74
2023/05/29 07:46:20;;;;;;;;;;;;;;;25.79;34.13;99163.68;67976;1275;1016689;-73
2023/05/29 07:49:23;;;;;;;;;;;;;;;26.14;33.65;99167.92;67978;1275;1016441;-62
2023/05/29 07:52:25;;;;;;;;;;;;;;;26.50;33.95;99166.73;67940;1275;1016501;-72
2023/05/29 07:55:28;;;;;;;;;;;;;;;26.79;33.75;99161.94;67945;1275;1016312;-67
2023/05/29 07:58:31;;;;;;;;;;;;;;;27.13;33.69;99162.45;67988;1275;1016278;-73
2023/05/29 08:01:34;;;;;;;;;;;;;;;27.30;32.67;99162.30;67942;1275;1016491;-73
2023/05/29 08:04:37;;;;;;;;;;;;;;;27.06;32.44;99163.17;67942;1275;1016328;-65
2023/05/29 08:07:39;;;;;;;;;;;;;;;27.07;32.12;99161.70;67963;1275;1016411;-67
2023/05/29 08:10:41;;;;;;;;;;;;;;;27.19;32.15;99164.42;67967;1275;1016449;-73
2023/05/29 08:13:44;;;;;;;;;;;;;;;27.29;31.70;99166.04;67881;1275;1016508;-71
2023/05/29 08:16:46;;;;;;;;;;;;;;;27.31;30.90;99176.55;67967;1275;1016602;-71
2023/05/29 08:19:49;;;;;;;;;;;;;;;27.14;31.18;99176.16;67914;1275;1016296;-69
2023/05/29 08:22:52;;;;;;;;;;;;;;;27.10;31.29;99168.81;67944;1275;1018128;-61
2023/05/29 08:25:54;;;;;;;;;;;;;;;27.46;31.80;99163.34;67929;1275;1016490;-66
2023/05/29 08:28:59;;;;;;;;;;;;;;;27.46;30.49;99165.13;67973;1275;1016453;-68
2023/05/29 08:32:02;;;;;;;;;;;;;;;27.27;30.75;99168.73;67947;1275;1016429;-67
2023/05/29 08:35:05;;;;;;;;;;;;;;;27.41;30.39;99162.48;67893;1275;1016429;-70
2023/05/29 08:38:07;;;;;;;;;;;;;;;27.75;30.78;99154.95;67994;1275;1016088;-69
2023/05/29 08:41:10;;;;;;;;;;;;;;;27.89;30.37;99155.91;67941;1275;1020211;-62
2023/05/29 08:44:13;;;;;;;;;;;;;;;27.64;30.06;99158.25;67886;1275;1016694;-69
2023/05/29 08:47:20;;;;;;;;;;;;;;;27.43;30.58;99161.17;67874;1275;1016400;-71
2023/05/29 08:50:23;;;;;;;;;;;;;;;27.47;30.38;99157.27;67902;1275;1016495;-70
2023/05/29 08:53:26;;;;;;;;;;;;;;;27.42;29.63;99150.00;68008;1275;1017133;-71
2023/05/29 08:56:28;;;;;;;;;;;;;;;27.30;29.95;99149.98;67942;1275;1019043;-63
2023/05/29 08:59:30;;;;;;;;;;;;;;;27.42;30.52;99153.13;67935;1275;1016301;-69
2023/05/29 09:02:35;;;;;;;;;;;;;;;27.63;30.14;99155.48;67970;1275;1016945;-71
2023/05/29 09:05:40;;;;;;;;;;;;;;;27.82;30.12;99147.43;68000;1275;1016371;-65
2023/05/29 09:08:43;;;;;;;;;;;;;;;27.85;29.57;99150.54;67944;1275;1016426;-72
2023/05/29 09:11:45;;;;;;;;;;;;;;;27.73;29.44;99152.52;67924;1275;1017806;-71
2023/05/29 09:14:49;;;;;;;;;;;;;;;27.81;29.74;99146.69;67909;1275;1016378;-66
2023/05/29 09:17:52;;;;;;;;;;;;;;;27.77;30.27;99146.24;67987;1275;1016491;-71
2023/05/29 09:20:55;;;;;;;;;;;;;;;27.59;29.68;99145.80;67971;1275;1016373;-60
2023/05/29 09:23:58;;;;;;;;;;;;;;;27.22;30.09;99150.33;67955;1275;1016554;-72
2023/05/29 09:27:01;;;;;;;;;;;;;;;27.03;30.88;99152.92;67932;1275;1016400;-71
2023/05/29 09:30:03;;;;;;;;;;;;;;;26.74;29.76;99154.67;68027;1275;1016443;-60
2023/05/29 09:33:06;;;;;;;;;;;;;;;26.57;31.00;99156.10;67928;1275;1016538;-65
2023/05/29 09:36:11;;;;;;;;;;;;;;;26.81;31.14;99151.70;68004;1275;1016020;-62
2023/05/29 09:39:15;;;;;;;;;;;;;;;26.75;30.50;99153.91;67988;1275;1016398;-68
2023/05/29 09:42:18;;;;;;;;;;;;;;;26.67;31.11;99150.30;67917;1275;1016830;-72
2023/05/29 09:45:21;;;;;;;;;;;;;;;26.89;29.84;99154.73;67961;1275;1016188;-71
2023/05/29 09:48:26;;;;;;;;;;;;;;;26.89;29.39;99152.83;67944;1275;1016363;-72
2023/05/29 09:51:30;;;;;;;;;;;;;;;26.96;30.21;99148.05;67993;1275;1018862;-61
2023/05/29 09:54:33;;;;;;;;;;;;;;;27.18;29.91;99150.28;67917;1275;1016145;-66
2023/05/29 09:57:35;;;;;;;;;;;;;;;27.29;30.14;99151.42;67997;1275;1016153;-70
2023/05/29 10:00:39;;;;;;;;;;;;;;;27.52;29.81;99152.16;67943;1275;1016476;-65
2023/05/29 10:03:43;;;;;;;;;;;;;;;28.16;30.29;99147.06;67944;1275;1016450;-71
2023/05/29 10:06:46;;;;;;;;;;;;;;;28.39;29.28;99148.41;67985;1275;1016547;-71
2023/05/29 10:09:50;;;;;;;;;;;;;;;28.57;29.45;99148.24;67947;1275;1016301;-67
2023/05/29 10:12:53;;;;;;;;;;;;;;;29.09;30.09;99144.18;67954;1275;1018285;-70
2023/05/29 10:15:56;;;;;;;;;;;;;;;29.43;28.36;99147.08;68009;1275;1016242;-72
2023/05/29 10:19:00;;;;;;;;;;;;;;;29.03;28.12;99145.23;68004;1275;1016233;-69
2023/05/29 10:22:03;;;;;;;;;;;;;;;29.13;28.33;99142.43;67962;1275;1016014;-62
2023/05/29 10:25:08;;;;;;;;;;;;;;;29.04;27.29;99146.20;68034;1275;1016455;-72
2023/05/29 10:28:11;;;;;;;;;;;;;;;28.97;27.97;99139.39;67900;1275;1015934;-68
2023/05/29 10:31:14;;;;;;;;;;;;;;;28.86;27.56;99141.40;68019;1275;1016317;-72
2023/05/29 10:34:17;;;;;;;;;;;;;;;28.97;28.10;99142.16;67881;1275;1016892;-72
2023/05/29 10:37:20;;;;;;;;;;;;;;;29.69;28.56;99140.61;67950;1275;1015792;-64
2023/05/29 10:40:22;;;;;;;;;;;;;;;29.93;27.16;99140.59;68005;1275;1015989;-72
2023/05/29 10:43:25;;;;;;;;;;;;;;;30.19;27.67;99137.02;67947;1275;1016317;-72
2023/05/29 10:46:28;;;;;;;;;;;;;;;30.34;26.96;99134.88;67954;1275;1020432;-72
2023/05/29 10:49:32;;;;;;;;;;;;;;;30.44;26.98;99130.34;67955;1275;1016061;-72
2023/05/29 10:52:35;;;;;;;;;;;;;;;30.59;26.18;99131.20;68013;1275;1016141;-72
2023/05/29 10:55:38;;;;;;;;;;;;;;;30.41;26.42;99133.48;67994;1275;1017796;-61
2023/05/29 10:58:41;;;;;;;;;;;;;;;30.27;26.68;99134.69;67910;1275;1016475;-67
2023/05/29 11:01:44;;;;;;;;;;;;;;;29.91;26.44;99124.58;67976;1275;1016898;-72
2023/05/29 11:04:47;;;;;;;;;;;;;;;29.23;25.95;99128.95;67975;1275;1016243;-72
2023/05/29 11:07:50;;;;;;;;;;;;;;;28.98;26.40;99129.67;67877;1275;1016220;-62
2023/05/29 11:10:52;;;;;;;;;;;;;;;29.30;26.65;99124.63;67969;1275;1016335;-72
2023/05/29 11:13:55;;;;;;;;;;;;;;;29.91;26.44;99121.23;68011;1275;1016134;-72
2023/05/29 11:16:58;;;;;;;;;;;;;;;30.42;28.09;99122.52;67957;1275;1016292;-72
2023/05/29 11:20:01;;;;;;;;;;;;;;;30.55;25.94;99120.27;68028;1275;1015858;-71
2023/05/29 11:23:06;;;;;;;;;;;;;;;30.70;26.72;99116.27;67932;1275;1016114;-73
2023/05/29 11:26:09;;;;;;;;;;;;;;;30.93;26.01;99114.98;67966;1275;1016474;-72
2023/05/29 11:29:13;;;;;;;;;;;;;;;31.37;26.40;99111.88;67984;1275;1016416;-70
2023/05/29 11:32:15;;;;;;;;;;;;;;;32.01;26.69;99104.08;68009;1275;1016302;-72
2023/05/29 11:35:18;;;;;;;;;;;;;;;32.51;26.56;99098.23;68007;1275;1017560;-75
2023/05/29 11:38:20;;;;;;;;;;;;;;;32.86;26.78;99099.75;67960;1275;1016281;-71
2023/05/29 11:41:23;;;;;;;;;;;;;;;33.09;25.75;99101.90;67988;1275;1016406;-75
2023/05/29 11:44:26;;;;;;;;;;;;;;;33.20;26.38;99103.39;67891;1275;1016210;-72
2023/05/29 11:47:29;;;;;;;;;;;;;;;33.39;25.51;99101.88;67948;1275;1016225;-70
2023/05/29 11:50:31;;;;;;;;;;;;;;;33.56;25.65;99097.91;67988;1275;1016367;-61
2023/05/29 11:53:35;;;;;;;;;;;;;;;33.39;25.38;99091.06;67917;1275;1016846;-62
2023/05/29 11:56:40;;;;;;;;;;;;;;;32.94;23.84;99087.29;68002;1275;1016829;-67
2023/05/29 11:59:43;;;;;;;;;;;;;;;32.36;24.31;99090.84;67969;1275;1016333;-61
2023/05/29 12:02:46;;;;;;;;;;;;;;;32.52;25.23;99086.36;68010;1275;1016360;-73
2023/05/29 12:05:52;;;;;;;;;;;;;;;32.79;25.11;99083.34;67967;1275;1016373;-73
2023/05/29 12:08:54;;;;;;;;;;;;;;;33.19;24.78;99078.46;67977;1275;1016376;-74
2023/05/29 12:11:57;;;;;;;;;;;;;;;33.38;24.59;99081.20;67954;1275;1016921;-62
2023/05/29 12:15:02;;;;;;;;;;;;;;;33.19;23.33;99076.13;68021;1275;1016497;-62
2023/05/29 12:18:04;;;;;;;;;;;;;;;33.00;24.72;99074.84;67599;1275;1016454;-61
2023/05/29 12:21:07;;;;;;;;;;;;;;;33.22;24.97;99073.61;67971;1275;1016431;-74
2023/05/29 12:24:09;;;;;;;;;;;;;;;33.03;21.79;99076.74;67980;1275;1016420;-71
2023/05/29 12:27:12;;;;;;;;;;;;;;;32.22;23.40;99069.23;68014;1275;1016654;-60
2023/05/29 12:30:16;;;;;;;;;;;;;;;32.17;23.38;99068.04;67978;1274;1016309;-61
2023/05/29 12:33:18;;;;;;;;;;;;;;;32.13;23.89;99066.09;68017;1275;1015647;-73
2023/05/29 12:36:21;;;;;;;;;;;;;;;32.22;23.45;99061.22;67990;1275;1016393;-61
2023/05/29 12:39:24;;;;;;;;;;;;;;;31.99;23.73;99067.97;67891;1275;1016368;-62
2023/05/29 12:42:27;;;;;;;;;;;;;;;31.77;23.08;99069.42;67978;1275;1016408;-62
2023/05/29 12:45:30;;;;;;;;;;;;;;;31.61;22.90;99066.55;67895;1275;1016255;-62
2023/05/29 12:48:32;;;;;;;;;;;;;;;31.83;24.95;99054.97;68010;1275;1016393;-63
2023/05/29 12:51:35;;;;;;;;;;;;;;;32.32;23.60;99049.64;67954;1275;1016489;-66
2023/05/29 12:54:38;;;;;;;;;;;;;;;32.36;23.30;99048.21;67979;1275;1016934;-64
2023/05/29 12:57:43;;;;;;;;;;;;;;;32.03;23.44;99049.96;67907;1275;1018773;-68
2023/05/29 13:00:47;;;;;;;;;;;;;;;31.29;23.73;99048.04;68011;1275;1016398;-73
2023/05/29 13:03:50;;;;;;;;;;;;;;;30.93;23.87;99048.72;67998;1275;1015724;-60
2023/05/29 13:06:53;;;;;;;;;;;;;;;30.83;23.69;99045.88;68004;1275;1016491;-71
2023/05/29 13:09:55;;;;;;;;;;;;;;;31.13;24.72;99042.15;67927;1275;1016390;-71
2023/05/29 13:12:58;;;;;;;;;;;;;;;30.88;23.80;99045.39;68006;1275;1016863;-70
2023/05/29 13:16:01;;;;;;;;;;;;;;;30.23;23.59;99048.11;67880;1275;1016388;-69
2023/05/29 13:19:05;;;;;;;;;;;;;;;30.28;24.22;99041.02;67979;1275;1018177;-69
2023/05/29 13:22:08;;;;;;;;;;;;;;;30.60;24.40;99036.02;68014;1275;1016490;-61
2023/05/29 13:25:11;;;;;;;;;;;;;;;30.68;24.35;99035.66;68008;1275;1016442;-68
2023/05/29 13:28:13;;;;;;;;;;;;;;;30.88;24.22;99023.80;67903;1275;1016481;-72
2023/05/29 13:31:16;;;;;;;;;;;;;;;31.53;25.27;99013.91;68018;1275;1016361;-71
2023/05/29 13:34:19;;;;;;;;;;;;;;;32.29;24.62;99010.31;67960;1275;1016283;-74
2023/05/29 13:37:21;;;;;;;;;;;;;;;32.30;23.80;99018.65;67922;1275;1016474;-68
2023/05/29 13:40:24;;;;;;;;;;;;;;;31.88;23.57;99013.39;67992;1275;1016533;-73
2023/05/29 13:43:27;;;;;;;;;;;;;;;31.62;23.40;99020.25;68013;1275;1015754;-73
2023/05/29 13:46:30;;;;;;;;;;;;;;;31.57;23.35;99013.54;67989;1275;1016367;-73
2023/05/29 13:49:32;;;;;;;;;;;;;;;31.93;23.20;99011.54;68027;1275;1016247;-62
2023/05/29 13:52:35;;;;;;;;;;;;;;;31.89;22.71;99010.73;68049;1275;1018880;-60
2023/05/29 13:55:38;;;;;;;;;;;;;;;32.11;24.05;99006.30;67914;1275;1016030;-64
2023/05/29 13:58:41;;;;;;;;;;;;;;;32.56;24.23;99002.23;68004;1275;1016341;-61
2023/05/29 14:01:43;;;;;;;;;;;;;;;32.63;23.05;99006.39;67917;1275;1016378;-63
2023/05/29 14:04:46;;;;;;;;;;;;;;;32.15;22.65;99011.66;67978;1275;1017586;-73
2023/05/29 14:07:48;;;;;;;;;;;;;;;31.71;22.82;99010.18;67994;1275;1016467;-74
2023/05/29 14:10:51;;;;;;;;;;;;;;;31.74;23.42;99005.92;68029;1275;1016431;-74
2023/05/29 14:13:54;;;;;;;;;;;;;;;32.04;22.77;99004.67;68003;1275;1016312;-72
2023/05/29 14:16:57;;;;;;;;;;;;;;;31.75;22.87;99002.33;67982;1275;1016107;-73
2023/05/29 14:20:04;;;;;;;;;;;;;;;31.47;23.28;98994.34;67977;1275;1016424;-68
2023/05/29 14:23:09;;;;;;;;;;;;;;;31.08;23.29;98992.23;67964;1275;1015738;-71
2023/05/29 14:26:12;;;;;;;;;;;;;;;30.85;23.41;98997.64;67996;1275;1016428;-74
2023/05/29 14:29:14;;;;;;;;;;;;;;;30.93;23.50;98999.20;67963;1275;1016146;-73
2023/05/29 14:32:17;;;;;;;;;;;;;;;31.02;23.91;98994.20;67960;1275;1019093;-74
2023/05/29 14:35:19;;;;;;;;;;;;;;;31.50;23.45;98988.73;68001;1275;1016291;-74
2023/05/29 14:38:22;;;;;;;;;;;;;;;31.45;22.27;98995.19;68006;1275;1018902;-74
2023/05/29 14:41:25;;;;;;;;;;;;;;;30.98;22.59;98993.90;67991;1275;1016370;-64
2023/05/29 14:44:27;;;;;;;;;;;;;;;30.78;22.76;98993.41;67999;1275;1015836;-74
2023/05/29 14:47:30;;;;;;;;;;;;;;;30.87;23.26;98991.54;67988;1275;1019532;-73
2023/05/29 14:50:32;;;;;;;;;;;;;;;30.87;22.73;98991.00;67986;1275;1016385;-72
2023/05/29 14:53:36;;;;;;;;;;;;;;;31.05;23.64;98977.72;67896;1275;1015795;-69
2023/05/29 14:56:39;;;;;;;;;;;;;;;31.17;22.80;98985.73;68004;1275;1016357;-73
2023/05/29 14:59:41;;;;;;;;;;;;;;;30.98;23.29;98987.08;67956;1275;1016429;-61
2023/05/29 15:02:44;;;;;;;;;;;;;;;31.43;22.21;98981.04;67950;1275;1016296;-69
2023/05/29 15:05:47;;;;;;;;;;;;;;;32.33;20.77;98980.98;67990;1275;1016402;-63
2023/05/29 15:08:50;;;;;;;;;;;;;;;33.20;20.22;98978.17;67963;1275;1016499;-74
2023/05/29 15:11:53;;;;;;;;;;;;;;;33.69;20.43;98977.86;68009;1275;1016403;-74
2023/05/29 15:14:56;;;;;;;;;;;;;;;34.64;19.87;98979.92;67982;1275;1016205;-61
2023/05/29 15:18:01;;;;;;;;;;;;;;;35.19;18.90;98978.57;68023;1275;1016372;-63
2023/05/29 15:21:04;;;;;;;;;;;;;;;35.58;18.64;98981.05;67910;1275;1016485;-65
2023/05/29 15:24:07;;;;;;;;;;;;;;;36.57;18.57;98976.08;67984;1275;1016248;-61
2023/05/29 15:27:10;;;;;;;;;;;;;;;36.82;17.40;98972.90;67948;1275;1016209;-64
2023/05/29 15:30:13;;;;;;;;;;;;;;;36.81;17.01;98968.48;67972;1275;1016626;-61